createdAt,value
2022-11-26T00:02:29.799Z,17.25
2022-11-26T00:04:59.024Z,15.75
2022-11-26T00:07:29.604Z,16.27
2022-11-26T00:09:58.446Z,15.20
2022-11-26T00:12:31.103Z,13.68
2022-11-26T00:15:05.544Z,13.77
2022-11-26T00:17:32.695Z,12.52
2022-11-26T00:20:00.077Z,11.75
2022-11-26T00:22:31.908Z,11.88
2022-11-26T00:24:59.262Z,18.05
2022-11-26T00:27:27.570Z,18.95
2022-11-26T00:29:55.256Z,17.08
2022-11-26T00:32:25.345Z,19.10
2022-11-26T00:34:53.479Z,16.40
2022-11-26T00:37:31.088Z,15.65
2022-11-26T00:39:58.323Z,14.90
2022-11-26T00:42:25.443Z,14.00
2022-11-26T00:44:52.670Z,12.77
2022-11-26T00:47:19.935Z,13.45
2022-11-26T00:49:47.037Z,9.05
2022-11-26T00:52:34.318Z,9.85
2022-11-26T00:55:07.805Z,8.43
2022-11-26T00:57:35.434Z,9.55
2022-11-26T01:00:13.246Z,9.02
2022-11-26T01:02:40.500Z,11.18
2022-11-26T01:05:08.088Z,9.23
2022-11-26T01:07:35.827Z,11.55
2022-11-26T01:10:03.838Z,14.00
2022-11-26T01:12:30.982Z,14.68
2022-11-26T01:14:58.121Z,13.52
2022-11-26T01:17:25.382Z,13.65
2022-11-26T01:19:52.473Z,16.23
2022-11-26T01:22:22.509Z,16.25
2022-11-26T01:24:50.014Z,12.32
2022-11-26T01:27:20.159Z,11.35
2022-11-26T01:29:47.490Z,11.98
2022-11-26T01:32:14.610Z,10.00
2022-11-26T01:34:41.860Z,9.38
2022-11-26T01:37:13.770Z,13.50
2022-11-26T01:39:41.441Z,14.43
2022-11-26T01:42:22.701Z,14.55
2022-11-26T01:44:49.907Z,13.25
2022-11-26T01:47:28.910Z,12.95
2022-11-26T01:50:30.216Z,11.80
2022-11-26T01:53:15.414Z,12.82
2022-11-26T01:55:53.626Z,12.13
2022-11-26T01:58:27.626Z,12.20
2022-11-26T02:00:55.289Z,10.73
2022-11-26T02:03:23.386Z,10.63
2022-11-26T02:06:06.374Z,10.40
2022-11-26T02:08:35.196Z,16.38
2022-11-26T02:11:19.855Z,12.15
2022-11-26T02:13:51.293Z,12.15
2022-11-26T02:16:43.583Z,11.27
2022-11-26T02:20:16.636Z,11.27
2022-11-26T02:22:49.907Z,9.90
2022-11-26T02:25:47.432Z,18.92
2022-11-26T02:28:57.856Z,16.00
2022-11-26T02:31:59.186Z,10.68
2022-11-26T02:34:48.847Z,8.65
2022-11-26T02:39:56.190Z,8.30
2022-11-26T02:42:25.077Z,8.13
2022-11-26T02:44:54.982Z,9.02
2022-11-26T02:47:24.169Z,9.63
2022-11-26T02:49:52.159Z,9.38
2022-11-26T02:52:20.957Z,9.98
2022-11-26T02:54:50.130Z,11.10
2022-11-26T02:57:20.870Z,16.55
2022-11-26T02:59:48.088Z,14.55
2022-11-26T03:03:08.175Z,13.80
2022-11-26T03:05:38.597Z,12.52
2022-11-26T03:08:07.342Z,13.25
2022-11-26T03:10:34.750Z,14.00
2022-11-26T03:13:01.954Z,14.13
2022-11-26T03:15:29.239Z,14.57
2022-11-26T03:17:56.384Z,12.75
2022-11-26T03:20:23.833Z,12.05
2022-11-26T03:22:51.012Z,12.13
2022-11-26T03:25:18.427Z,13.85
2022-11-26T03:27:45.658Z,14.73
2022-11-26T03:30:13.393Z,15.85
2022-11-26T03:32:40.613Z,13.82
2022-11-26T03:35:08.419Z,14.27
2022-11-26T03:37:36.039Z,13.27
2022-11-26T03:40:03.480Z,15.65
2022-11-26T03:42:30.633Z,13.57
2022-11-26T03:44:57.777Z,12.77
2022-11-26T03:47:24.976Z,14.70
2022-11-26T03:49:52.786Z,15.93
2022-11-26T03:52:20.257Z,17.75
2022-11-26T03:54:47.414Z,18.67
2022-11-26T03:57:14.543Z,19.77
2022-11-26T03:59:41.655Z,15.63
2022-11-26T04:02:08.785Z,13.60
2022-11-26T04:04:36.256Z,14.18
2022-11-26T04:07:03.624Z,17.77
2022-11-26T04:09:31.040Z,16.55
2022-11-26T04:11:58.358Z,18.85
2022-11-26T04:14:25.634Z,16.23
2022-11-26T04:16:52.816Z,18.98
2022-11-26T04:19:19.968Z,17.98
2022-11-26T04:21:47.352Z,19.45
2022-11-26T04:24:14.567Z,18.05
2022-11-26T04:26:41.814Z,18.50
2022-11-26T04:29:09.045Z,18.35
2022-11-26T04:31:36.262Z,17.25
2022-11-26T04:34:03.538Z,16.77
2022-11-26T04:36:30.828Z,19.00
2022-11-26T04:38:58.567Z,20.05
2022-11-26T04:41:25.882Z,21.90
2022-11-26T04:43:52.990Z,16.58
2022-11-26T04:46:20.245Z,14.05
2022-11-26T04:48:47.389Z,18.63
2022-11-26T04:51:14.542Z,16.85
2022-11-26T04:53:41.639Z,16.40
2022-11-26T04:56:08.705Z,19.27
2022-11-26T04:58:35.946Z,19.45
2022-11-26T05:01:03.272Z,21.35
2022-11-26T05:03:30.610Z,20.05
2022-11-26T05:05:57.744Z,18.55
2022-11-26T05:08:24.958Z,18.92
2022-11-26T05:10:55.322Z,19.63
2022-11-26T05:13:22.566Z,18.00
2022-11-26T05:15:50.356Z,15.02
2022-11-26T05:18:17.534Z,13.85
2022-11-26T05:20:44.633Z,16.65
2022-11-26T05:23:12.043Z,15.70
2022-11-26T05:25:39.207Z,15.43
2022-11-26T05:28:06.336Z,16.23
2022-11-26T05:30:33.770Z,14.57
2022-11-26T05:33:01.022Z,20.13
2022-11-26T05:35:28.219Z,16.83
2022-11-26T05:37:55.308Z,15.60
2022-11-26T05:40:22.499Z,15.23
2022-11-26T05:42:49.905Z,13.95
2022-11-26T05:45:17.273Z,15.00
2022-11-26T05:47:44.459Z,14.00
2022-11-26T05:50:11.728Z,15.10
2022-11-26T05:52:38.860Z,15.48
2022-11-26T05:55:07.655Z,16.45
2022-11-26T05:57:36.227Z,15.80
2022-11-26T06:00:05.269Z,21.88
2022-11-26T06:02:38.968Z,20.80
2022-11-26T06:05:07.856Z,18.58
2022-11-26T06:07:36.253Z,18.25
2022-11-26T06:10:06.727Z,14.63
2022-11-26T06:12:34.128Z,14.50
2022-11-26T06:15:01.439Z,13.63
2022-11-26T06:17:28.631Z,11.40
2022-11-26T06:19:55.797Z,13.45
2022-11-26T06:22:22.913Z,10.32
2022-11-26T06:24:50.054Z,12.40
2022-11-26T06:27:17.628Z,13.27
2022-11-26T06:29:44.829Z,15.00
2022-11-26T06:32:12.079Z,16.67
2022-11-26T06:34:40.920Z,20.55
2022-11-26T06:37:10.810Z,19.95
2022-11-26T06:39:38.046Z,17.73
2022-11-26T06:42:05.306Z,13.43
2022-11-26T06:44:35.974Z,13.93
2022-11-26T06:47:03.459Z,13.32
2022-11-26T06:49:30.759Z,15.68
2022-11-26T06:51:57.849Z,15.80
2022-11-26T06:54:25.057Z,18.52
2022-11-26T06:56:52.293Z,22.88
2022-11-26T06:59:19.586Z,22.98
2022-11-26T07:01:46.827Z,23.83
2022-11-26T07:04:14.284Z,20.08
2022-11-26T07:06:41.711Z,22.77
2022-11-26T07:09:10.201Z,20.63
2022-11-26T07:11:39.330Z,20.98
2022-11-26T07:14:07.560Z,21.30
2022-11-26T07:16:35.485Z,26.15
2022-11-26T07:19:03.374Z,20.00
2022-11-26T07:21:31.228Z,24.88
2022-11-26T07:23:58.611Z,23.80
2022-11-26T07:26:25.769Z,24.75
2022-11-26T07:28:53.334Z,25.80
2022-11-26T07:31:22.962Z,24.23
2022-11-26T07:36:24.180Z,24.60
2022-11-26T07:38:55.130Z,22.98
2022-11-26T07:41:23.731Z,24.45
2022-11-26T07:43:51.652Z,25.63
2022-11-26T07:46:22.997Z,27.77
2022-11-26T07:48:50.647Z,25.60
2022-11-26T07:51:27.748Z,24.50
2022-11-26T07:53:56.927Z,24.70
2022-11-26T07:56:25.364Z,22.02
2022-11-26T07:58:52.666Z,20.67
2022-11-26T08:01:22.798Z,20.77
2022-11-26T08:03:51.127Z,18.80
2022-11-26T08:06:21.864Z,21.73
2022-11-26T08:08:50.043Z,21.75
2022-11-26T08:11:21.533Z,23.13
2022-11-26T08:13:53.797Z,19.77
2022-11-26T08:16:21.311Z,22.58
2022-11-26T08:18:52.318Z,22.35
2022-11-26T08:21:19.717Z,18.83
2022-11-26T08:23:47.064Z,19.70
2022-11-26T08:26:27.400Z,19.17
2022-11-26T08:28:59.615Z,17.85
2022-11-26T08:31:27.489Z,12.83
2022-11-26T08:34:02.757Z,7.47
2022-11-26T08:36:31.255Z,5.78
2022-11-26T08:38:59.864Z,5.93
2022-11-26T08:41:27.359Z,6.97
2022-11-26T08:44:09.924Z,3.70
2022-11-26T08:46:40.523Z,4.75
2022-11-26T08:49:11.795Z,3.92
2022-11-26T08:51:39.148Z,3.58
2022-11-26T08:54:06.829Z,6.47
2022-11-26T08:56:34.100Z,5.25
2022-11-26T08:59:01.274Z,4.60
2022-11-26T09:01:32.091Z,5.13
2022-11-26T09:04:04.637Z,4.03
2022-11-26T09:06:36.096Z,4.78
2022-11-26T09:09:14.460Z,5.13
2022-11-26T09:11:49.832Z,5.93
2022-11-26T09:14:20.840Z,6.65
2022-11-26T09:16:48.055Z,7.32
2022-11-26T09:19:16.371Z,8.45
2022-11-26T09:21:44.804Z,9.13
2022-11-26T09:24:13.457Z,4.15
2022-11-26T09:26:40.811Z,3.58
2022-11-26T09:29:09.416Z,2.90
2022-11-26T09:31:42.658Z,3.67
2022-11-26T09:34:17.711Z,2.45
2022-11-26T09:36:45.073Z,4.00
2022-11-26T09:39:13.803Z,2.20
2022-11-26T09:41:46.826Z,2.95
2022-11-26T09:44:39.149Z,3.20
2022-11-26T09:47:21.816Z,3.83
2022-11-26T09:50:13.097Z,3.40
2022-11-26T09:53:03.072Z,2.85
2022-11-26T09:55:38.211Z,3.67
2022-11-26T09:58:44.724Z,4.07
2022-11-26T10:01:22.075Z,4.05
2022-11-26T10:03:50.796Z,4.07
2022-11-26T10:06:55.953Z,2.50
2022-11-26T10:10:01.241Z,3.45
2022-11-26T10:13:21.856Z,3.22
2022-11-26T10:16:25.518Z,3.65
2022-11-26T10:19:14.621Z,2.80
2022-11-26T10:22:00.059Z,3.45
2022-11-26T10:24:41.618Z,3.53
2022-11-26T10:27:20.432Z,2.85
2022-11-26T10:30:19.241Z,3.38
2022-11-26T10:32:48.605Z,3.53
2022-11-26T10:35:21.076Z,3.83
2022-11-26T10:37:48.994Z,4.00
2022-11-26T10:40:25.072Z,4.00
2022-11-26T10:42:56.702Z,3.72
2022-11-26T10:45:36.075Z,4.00
2022-11-26T10:48:30.649Z,4.60
2022-11-26T10:51:02.109Z,5.00
2022-11-26T10:53:35.184Z,4.72
2022-11-26T10:56:07.038Z,4.78
2022-11-26T10:58:42.290Z,4.20
2022-11-26T11:01:13.504Z,4.32
2022-11-26T11:04:28.520Z,4.18
2022-11-26T11:06:56.309Z,3.65
2022-11-26T11:09:34.685Z,4.43
2022-11-26T11:12:23.070Z,4.78
2022-11-26T11:14:51.602Z,3.60
2022-11-26T11:17:31.844Z,4.93
2022-11-26T11:20:23.868Z,4.85
2022-11-26T11:23:00.823Z,4.60
2022-11-26T11:25:32.489Z,5.63
2022-11-26T11:28:19.992Z,6.53
2022-11-26T11:31:04.255Z,5.70
2022-11-26T11:33:31.883Z,5.82
2022-11-26T11:36:13.114Z,6.90
2022-11-26T11:39:00.418Z,5.90
2022-11-26T11:41:36.452Z,5.53
2022-11-26T11:44:13.130Z,4.90
2022-11-26T11:47:06.696Z,6.82
2022-11-26T11:49:44.291Z,5.88
2022-11-26T11:52:57.626Z,5.20
2022-11-26T11:56:08.130Z,5.95
2022-11-26T11:59:07.702Z,5.75
2022-11-26T12:01:58.500Z,5.20
2022-11-26T12:04:58.414Z,4.72
2022-11-26T12:08:29.883Z,4.30
2022-11-26T12:11:27.264Z,5.38
2022-11-26T12:14:12.703Z,5.35
2022-11-26T12:16:44.604Z,4.45
2022-11-26T12:19:23.643Z,4.32
2022-11-26T12:22:16.744Z,5.70
2022-11-26T12:24:58.606Z,4.80
2022-11-26T12:27:44.717Z,3.65
2022-11-26T12:30:36.392Z,4.20
2022-11-26T12:33:43.016Z,4.50
2022-11-26T12:36:40.768Z,5.05
2022-11-26T12:39:35.834Z,5.22
2022-11-26T12:42:22.375Z,5.22
2022-11-26T12:44:52.316Z,3.97
2022-11-26T12:47:29.782Z,4.90
2022-11-26T12:50:08.901Z,3.45
2022-11-26T12:52:54.172Z,3.92
2022-11-26T12:55:46.247Z,4.32
2022-11-26T12:58:40.658Z,5.35
2022-11-26T13:01:11.204Z,3.22
2022-11-26T13:03:38.471Z,2.58
2022-11-26T13:06:33.851Z,3.63
2022-11-26T13:09:46.294Z,4.40
2022-11-26T13:12:47.535Z,4.97
2022-11-26T13:15:34.069Z,4.28
2022-11-26T13:18:04.068Z,6.43
2022-11-26T13:20:51.902Z,5.80
2022-11-26T13:23:34.046Z,5.90
2022-11-26T13:26:25.231Z,4.43
2022-11-26T13:29:33.432Z,4.82
2022-11-26T13:32:41.676Z,4.82
2022-11-26T13:35:33.248Z,3.85
2022-11-26T13:38:26.871Z,4.10
2022-11-26T13:41:44.706Z,4.78
2022-11-26T13:45:01.444Z,4.38
2022-11-26T13:47:49.168Z,4.63
2022-11-26T13:50:42.484Z,4.93
2022-11-26T13:53:26.303Z,5.32
2022-11-26T13:56:01.440Z,6.93
2022-11-26T13:58:40.389Z,7.75
2022-11-26T14:01:41.452Z,6.35
2022-11-26T14:04:15.357Z,7.13
2022-11-26T14:07:11.286Z,6.03
2022-11-26T14:09:44.309Z,6.72
2022-11-26T14:12:20.290Z,5.97
2022-11-26T14:14:51.780Z,6.55
2022-11-26T14:17:29.924Z,7.10
2022-11-26T14:20:00.372Z,6.30
2022-11-26T14:22:34.900Z,7.20
2022-11-26T14:25:09.434Z,7.57
2022-11-26T14:27:49.092Z,6.82
2022-11-26T14:30:23.641Z,8.23
2022-11-26T14:33:16.717Z,8.10
2022-11-26T14:35:55.939Z,12.05
2022-11-26T14:38:27.732Z,11.20
2022-11-26T14:41:00.764Z,12.30
2022-11-26T14:43:28.890Z,12.48
2022-11-26T14:46:16.954Z,13.85
2022-11-26T14:48:47.209Z,12.57
2022-11-26T14:51:25.791Z,13.00
2022-11-26T14:53:54.830Z,13.10
2022-11-26T14:56:24.529Z,15.13
2022-11-26T14:59:00.570Z,14.50
2022-11-26T15:01:29.357Z,14.55
2022-11-26T15:04:04.205Z,14.75
2022-11-26T15:06:37.418Z,13.55
2022-11-26T15:09:23.651Z,13.35
2022-11-26T15:12:10.639Z,12.63
2022-11-26T15:14:54.132Z,16.10
2022-11-26T15:17:23.815Z,14.30
2022-11-26T15:19:53.557Z,14.27
2022-11-26T15:23:03.279Z,14.82
2022-11-26T15:25:34.464Z,16.48
2022-11-26T15:28:05.472Z,16.42
2022-11-26T15:30:37.635Z,16.92
2022-11-26T15:33:13.542Z,17.75
2022-11-26T15:35:43.146Z,17.77
2022-11-26T15:40:58.541Z,21.17
2022-11-26T15:43:45.983Z,24.63
2022-11-26T15:46:25.530Z,20.25
2022-11-26T15:49:06.316Z,19.88
2022-11-26T15:51:49.643Z,19.10
2022-11-26T15:54:49.745Z,23.25
2022-11-26T15:57:30.550Z,21.20
2022-11-26T16:00:07.792Z,20.73
2022-11-26T16:02:38.637Z,22.90
2022-11-26T16:05:28.121Z,23.45
2022-11-26T16:10:30.464Z,31.37
2022-11-26T16:13:15.620Z,38.45
2022-11-26T16:16:04.894Z,35.53
2022-11-26T16:18:49.374Z,31.15
2022-11-26T16:21:23.896Z,34.65
2022-11-26T16:24:06.996Z,30.67
2022-11-26T16:27:17.320Z,27.38
2022-11-26T16:29:45.177Z,40.30
2022-11-26T16:32:14.537Z,41.60
2022-11-26T16:34:42.639Z,37.60
2022-11-26T16:37:24.206Z,34.45
2022-11-26T16:40:00.193Z,44.10
2022-11-26T16:42:30.949Z,51.53
2022-11-26T16:45:03.786Z,53.88
2022-11-26T16:47:40.624Z,41.30
2022-11-26T16:50:24.458Z,42.60
2022-11-26T16:52:53.601Z,40.05
2022-11-26T16:55:24.858Z,46.72
2022-11-26T16:57:56.841Z,55.55
2022-11-26T17:00:26.485Z,58.90
2022-11-26T17:02:54.338Z,50.30
2022-11-26T17:05:24.010Z,58.15
2022-11-26T17:10:28.647Z,45.38
2022-11-26T17:12:57.175Z,44.70
2022-11-26T17:15:24.302Z,39.70
2022-11-26T17:17:53.703Z,38.78
2022-11-26T17:20:27.362Z,41.08
2022-11-26T17:22:54.947Z,36.55
2022-11-26T17:25:22.180Z,30.88
2022-11-26T17:27:49.396Z,27.73
2022-11-26T17:30:21.303Z,39.95
2022-11-26T17:32:49.560Z,50.25
2022-11-26T17:35:17.571Z,56.15
2022-11-26T17:37:45.207Z,55.53
2022-11-26T17:40:20.235Z,61.78
2022-11-26T17:42:47.999Z,49.33
2022-11-26T17:45:16.218Z,47.15
2022-11-26T17:47:44.244Z,41.53
2022-11-26T17:50:22.976Z,29.20
2022-11-26T17:52:50.834Z,26.80
2022-11-26T17:55:18.712Z,25.10
2022-11-26T17:57:45.939Z,21.27
2022-11-26T18:00:18.806Z,28.58
2022-11-26T18:02:46.125Z,27.45
2022-11-26T18:05:13.872Z,32.50
2022-11-26T18:07:41.564Z,43.33
2022-11-26T18:10:17.851Z,56.75
2022-11-26T18:12:45.465Z,48.58
2022-11-26T18:15:26.406Z,48.22
2022-11-26T18:17:54.840Z,32.25
2022-11-26T18:20:25.829Z,39.10
2022-11-26T18:22:55.860Z,40.70
2022-11-26T18:25:23.694Z,50.67
2022-11-26T18:27:51.995Z,47.28
2022-11-26T18:30:20.176Z,42.75
2022-11-26T18:32:47.626Z,45.55
2022-11-26T18:35:14.835Z,35.95
2022-11-26T18:37:42.324Z,28.63
2022-11-26T18:40:14.822Z,27.13
2022-11-26T18:42:42.928Z,34.45
2022-11-26T18:45:14.675Z,36.95
2022-11-26T18:47:42.163Z,40.75
2022-11-26T18:50:10.144Z,35.10
2022-11-26T18:52:38.254Z,32.65
2022-11-26T18:55:07.620Z,31.48
2022-11-26T18:57:35.708Z,28.83
2022-11-26T19:00:05.295Z,41.47
2022-11-26T19:02:35.270Z,52.47
2022-11-26T19:05:03.022Z,70.70
2022-11-26T19:07:30.274Z,40.70
2022-11-26T19:09:57.561Z,33.00
2022-11-26T19:12:24.798Z,45.95
2022-11-26T19:14:52.003Z,68.32
2022-11-26T19:17:19.364Z,60.50
2022-11-26T19:19:47.217Z,52.80
2022-11-26T19:22:14.518Z,51.90
2022-11-26T19:24:42.109Z,47.97
2022-11-26T19:27:09.460Z,49.15
2022-11-26T19:29:36.557Z,48.25
2022-11-26T19:32:03.947Z,53.58
2022-11-26T19:34:31.198Z,54.33
2022-11-26T19:36:58.370Z,48.33
2022-11-26T19:39:25.668Z,45.65
2022-11-26T19:41:52.952Z,52.42
2022-11-26T19:44:20.183Z,47.25
2022-11-26T19:46:47.700Z,43.38
2022-11-26T19:49:14.987Z,44.92
2022-11-26T19:51:42.260Z,45.42
2022-11-26T19:54:09.962Z,47.85
2022-11-26T19:56:37.790Z,44.17
2022-11-26T19:59:05.096Z,45.92
2022-11-26T20:01:34.423Z,51.35
2022-11-26T20:04:05.694Z,42.90
2022-11-26T20:06:34.799Z,39.33
2022-11-26T20:09:05.194Z,40.70
2022-11-26T20:11:35.462Z,48.17
2022-11-26T20:14:02.846Z,52.40
2022-11-26T20:16:32.176Z,54.78
2022-11-26T20:19:01.876Z,48.47
2022-11-26T20:21:32.056Z,57.13
2022-11-26T20:24:03.901Z,53.35
2022-11-26T20:26:38.116Z,53.85
2022-11-26T20:29:09.360Z,58.05
2022-11-26T20:31:50.216Z,63.83
2022-11-26T20:34:23.251Z,65.72
2022-11-26T20:36:50.561Z,63.58
2022-11-26T20:39:21.240Z,67.28
2022-11-26T20:41:49.078Z,60.85
2022-11-26T20:44:16.285Z,62.92
2022-11-26T20:46:43.818Z,53.78
2022-11-26T20:49:11.248Z,51.38
2022-11-26T20:51:38.446Z,45.35
2022-11-26T20:54:06.145Z,44.40
2022-11-26T20:56:33.661Z,49.55
2022-11-26T20:59:01.480Z,70.43
2022-11-26T21:01:29.744Z,76.78
2022-11-26T21:03:58.057Z,64.47
2022-11-26T21:06:30.007Z,40.20
2022-11-26T21:09:04.909Z,38.47
2022-11-26T21:11:32.274Z,40.78
2022-11-26T21:14:00.886Z,42.28
2022-11-26T21:16:29.467Z,42.45
2022-11-26T21:18:57.456Z,44.45
2022-11-26T21:21:26.083Z,44.17
2022-11-26T21:23:54.092Z,41.80
2022-11-26T21:26:24.673Z,43.00
2022-11-26T21:28:57.778Z,41.17
2022-11-26T21:31:28.045Z,50.75
2022-11-26T21:34:00.022Z,49.35
2022-11-26T21:36:30.146Z,49.97
2022-11-26T21:38:57.378Z,51.83
2022-11-26T21:41:25.277Z,45.75
2022-11-26T21:43:52.503Z,44.03
2022-11-26T21:46:21.971Z,41.10
2022-11-26T21:48:50.791Z,42.20
2022-11-26T21:51:18.509Z,48.70
2022-11-26T21:53:47.098Z,42.30
2022-11-26T21:56:24.846Z,44.28
2022-11-26T21:58:52.555Z,38.30
2022-11-26T22:01:30.250Z,39.88
2022-11-26T22:04:04.425Z,42.38
2022-11-26T22:06:31.981Z,37.05
2022-11-26T22:08:59.887Z,37.53
2022-11-26T22:11:30.476Z,41.83
2022-11-26T22:13:58.131Z,36.63
2022-11-26T22:16:27.267Z,39.03
2022-11-26T22:18:56.596Z,31.00
2022-11-26T22:21:33.053Z,30.50
2022-11-26T22:24:02.722Z,35.65
2022-11-26T22:26:31.064Z,34.08
2022-11-26T22:28:58.954Z,37.80
2022-11-26T22:31:35.634Z,31.05
2022-11-26T22:34:16.917Z,35.20
2022-11-26T22:36:45.158Z,34.38
2022-11-26T22:39:17.633Z,29.60
2022-11-26T22:41:46.860Z,35.28
2022-11-26T22:44:15.190Z,35.28
2022-11-26T22:46:42.991Z,32.75
2022-11-26T22:49:13.965Z,35.13
2022-11-26T22:51:41.653Z,32.78
2022-11-26T22:54:12.838Z,29.48
2022-11-26T22:56:40.793Z,31.48
2022-11-26T22:59:11.211Z,31.50
2022-11-26T23:01:38.721Z,33.25
2022-11-26T23:04:08.297Z,29.38
2022-11-26T23:09:06.991Z,29.17
2022-11-26T23:11:38.396Z,31.90
2022-11-26T23:14:08.674Z,31.85
2022-11-26T23:16:37.442Z,33.70
2022-11-26T23:19:05.720Z,34.97
2022-11-26T23:21:39.359Z,34.38
2022-11-26T23:24:07.724Z,33.20
2022-11-26T23:26:38.098Z,31.45
2022-11-26T23:29:06.045Z,31.85
2022-11-26T23:31:37.059Z,36.35
2022-11-26T23:34:05.189Z,35.22
2022-11-26T23:36:32.942Z,37.92
2022-11-26T23:39:02.267Z,38.35
2022-11-26T23:41:29.830Z,36.22
2022-11-26T23:43:57.242Z,36.35
2022-11-26T23:46:31.306Z,37.20
2022-11-26T23:48:58.854Z,33.00
2022-11-26T23:51:29.639Z,33.42
2022-11-26T23:53:57.630Z,32.25
2022-11-26T23:56:31.169Z,32.22
2022-11-26T23:59:02.059Z,33.13
